sensor_id;sensor_type;location;lat;lon;timestamp;pressure;altitude;pressure_sealevel;temperature;humidity
72423;BME280;71399;54.146;38.734;2023-08-01T00:00:52;97340.97;;;17.94;100.00
72423;BME280;71399;54.146;38.734;2023-08-01T00:03:18;97352.78;;;18.05;100.00
72423;BME280;71399;54.146;38.734;2023-08-01T00:05:44;97351.34;;;18.08;100.00
72423;BME280;71399;54.146;38.734;2023-08-01T00:08:11;97340.22;;;18.06;100.00
72423;BME280;71399;54.146;38.734;2023-08-01T00:10:39;97346.13;;;18.11;100.00
72423;BME280;71399;54.146;38.734;2023-08-01T00:13:06;97343.13;;;18.13;100.00
72423;BME280;71399;54.146;38.734;2023-08-01T00:15:32;97336.56;;;18.10;100.00
72423;BME280;71399;54.146;38.734;2023-08-01T00:17:59;97350.69;;;18.11;100.00
72423;BME280;71399;54.146;38.734;2023-08-01T00:20:25;97352.22;;;18.12;100.00
72423;BME280;71399;54.146;38.734;2023-08-01T00:22:51;97348.03;;;18.11;100.00
72423;BME280;71399;54.146;38.734;2023-08-01T00:25:18;97350.34;;;18.12;100.00
72423;BME280;71399;54.146;38.734;2023-08-01T00:27:44;97341.91;;;18.10;100.00
72423;BME280;71399;54.146;38.734;2023-08-01T00:30:11;97349.78;;;18.19;100.00
72423;BME280;71399;54.146;38.734;2023-08-01T00:32:37;97348.81;;;18.24;100.00
72423;BME280;71399;54.146;38.734;2023-08-01T00:35:04;97360.72;;;18.26;100.00
72423;BME280;71399;54.146;38.734;2023-08-01T00:37:31;97356.25;;;18.30;100.00
72423;BME280;71399;54.146;38.734;2023-08-01T00:39:57;97362.03;;;18.32;100.00
72423;BME280;71399;54.146;38.734;2023-08-01T00:42:23;97346.72;;;18.29;100.00
72423;BME280;71399;54.146;38.734;2023-08-01T00:44:49;97351.34;;;18.32;100.00
72423;BME280;71399;54.146;38.734;2023-08-01T00:47:17;97354.16;;;18.36;100.00
72423;BME280;71399;54.146;38.734;2023-08-01T00:49:43;97368.06;;;18.42;100.00
72423;BME280;71399;54.146;38.734;2023-08-01T00:52:09;97365.38;;;18.42;100.00
72423;BME280;71399;54.146;38.734;2023-08-01T00:54:36;97368.81;;;18.42;100.00
72423;BME280;71399;54.146;38.734;2023-08-01T00:57:06;97373.06;;;18.43;100.00
72423;BME280;71399;54.146;38.734;2023-08-01T00:59:32;97373.38;;;18.42;100.00
72423;BME280;71399;54.146;38.734;2023-08-01T01:01:59;97370.16;;;18.36;100.00
72423;BME280;71399;54.146;38.734;2023-08-01T01:04:26;97372.59;;;18.29;100.00
72423;BME280;71399;54.146;38.734;2023-08-01T01:07:01;97365.25;;;18.26;100.00
72423;BME280;71399;54.146;38.734;2023-08-01T01:09:29;97379.03;;;18.28;100.00
72423;BME280;71399;54.146;38.734;2023-08-01T01:11:58;97373.13;;;18.22;100.00
72423;BME280;71399;54.146;38.734;2023-08-01T01:14:28;97370.47;;;18.22;100.00
72423;BME280;71399;54.146;38.734;2023-08-01T01:16:55;97371.59;;;18.21;100.00
72423;BME280;71399;54.146;38.734;2023-08-01T01:19:21;97387.91;;;18.20;100.00
72423;BME280;71399;54.146;38.734;2023-08-01T01:21:48;97375.00;;;18.09;100.00
72423;BME280;71399;54.146;38.734;2023-08-01T01:24:16;97379.75;;;18.04;100.00
72423;BME280;71399;54.146;38.734;2023-08-01T01:26:43;97385.09;;;18.04;100.00
72423;BME280;71399;54.146;38.734;2023-08-01T01:29:10;97383.28;;;17.95;100.00
72423;BME280;71399;54.146;38.734;2023-08-01T01:31:37;97397.84;;;17.98;100.00
72423;BME280;71399;54.146;38.734;2023-08-01T01:34:04;97401.63;;;17.97;100.00
72423;BME280;71399;54.146;38.734;2023-08-01T01:36:30;97409.16;;;17.95;100.00
72423;BME280;71399;54.146;38.734;2023-08-01T01:38:57;97417.94;;;17.95;100.00
72423;BME280;71399;54.146;38.734;2023-08-01T01:41:23;97435.06;;;17.94;100.00
72423;BME280;71399;54.146;38.734;2023-08-01T01:43:49;97432.28;;;17.91;100.00
72423;BME280;71399;54.146;38.734;2023-08-01T01:46:16;97431.16;;;17.92;100.00
72423;BME280;71399;54.146;38.734;2023-08-01T01:48:42;97426.78;;;17.87;100.00
72423;BME280;71399;54.146;38.734;2023-08-01T01:51:08;97435.25;;;17.89;100.00
72423;BME280;71399;54.146;38.734;2023-08-01T01:53:34;97441.69;;;17.88;100.00
72423;BME280;71399;54.146;38.734;2023-08-01T01:56:01;97436.69;;;17.87;100.00
72423;BME280;71399;54.146;38.734;2023-08-01T01:58:27;97444.97;;;17.85;100.00
72423;BME280;71399;54.146;38.734;2023-08-01T02:00:53;97450.63;;;17.84;100.00
72423;BME280;71399;54.146;38.734;2023-08-01T02:03:19;97443.94;;;17.77;100.00
72423;BME280;71399;54.146;38.734;2023-08-01T02:05:46;97461.28;;;17.84;100.00
72423;BME280;71399;54.146;38.734;2023-08-01T02:08:12;97461.44;;;17.87;100.00
72423;BME280;71399;54.146;38.734;2023-08-01T02:10:38;97466.91;;;17.91;100.00
72423;BME280;71399;54.146;38.734;2023-08-01T02:13:05;97457.16;;;17.95;100.00
72423;BME280;71399;54.146;38.734;2023-08-01T02:15:31;97455.19;;;18.04;100.00
72423;BME280;71399;54.146;38.734;2023-08-01T02:17:58;97458.44;;;18.10;100.00
72423;BME280;71399;54.146;38.734;2023-08-01T02:20:24;97460.56;;;18.17;100.00
72423;BME280;71399;54.146;38.734;2023-08-01T02:22:51;97451.63;;;18.12;100.00
72423;BME280;71399;54.146;38.734;2023-08-01T02:25:18;97450.78;;;18.21;100.00
72423;BME280;71399;54.146;38.734;2023-08-01T02:27:45;97450.13;;;18.24;100.00
72423;BME280;71399;54.146;38.734;2023-08-01T02:30:11;97448.81;;;18.30;100.00
72423;BME280;71399;54.146;38.734;2023-08-01T02:32:37;97438.16;;;18.30;100.00
72423;BME280;71399;54.146;38.734;2023-08-01T02:35:04;97443.16;;;18.44;100.00
72423;BME280;71399;54.146;38.734;2023-08-01T02:37:31;97452.19;;;18.51;100.00
72423;BME280;71399;54.146;38.734;2023-08-01T02:39:58;97447.53;;;18.61;100.00
72423;BME280;71399;54.146;38.734;2023-08-01T02:42:24;97440.88;;;18.67;100.00
72423;BME280;71399;54.146;38.734;2023-08-01T02:44:50;97426.75;;;18.66;100.00
72423;BME280;71399;54.146;38.734;2023-08-01T02:47:16;97439.78;;;18.80;100.00
72423;BME280;71399;54.146;38.734;2023-08-01T02:49:42;97433.47;;;18.85;100.00
72423;BME280;71399;54.146;38.734;2023-08-01T02:52:08;97432.16;;;18.91;100.00
72423;BME280;71399;54.146;38.734;2023-08-01T02:54:36;97437.91;;;18.93;100.00
72423;BME280;71399;54.146;38.734;2023-08-01T02:57:02;97427.69;;;18.95;100.00
72423;BME280;71399;54.146;38.734;2023-08-01T02:59:28;97428.00;;;18.94;100.00
72423;BME280;71399;54.146;38.734;2023-08-01T03:01:54;97425.88;;;18.99;100.00
72423;BME280;71399;54.146;38.734;2023-08-01T03:04:21;97431.34;;;19.03;100.00
72423;BME280;71399;54.146;38.734;2023-08-01T03:06:47;97423.34;;;19.03;100.00
72423;BME280;71399;54.146;38.734;2023-08-01T03:09:13;97421.69;;;18.98;100.00
72423;BME280;71399;54.146;38.734;2023-08-01T03:11:39;97425.13;;;18.99;100.00
72423;BME280;71399;54.146;38.734;2023-08-01T03:14:05;97426.03;;;19.03;100.00
72423;BME280;71399;54.146;38.734;2023-08-01T03:16:32;97426.47;;;19.05;100.00
72423;BME280;71399;54.146;38.734;2023-08-01T03:18:58;97429.91;;;19.05;100.00
72423;BME280;71399;54.146;38.734;2023-08-01T03:21:34;97433.69;;;19.04;100.00
72423;BME280;71399;54.146;38.734;2023-08-01T03:24:01;97433.69;;;19.04;100.00
72423;BME280;71399;54.146;38.734;2023-08-01T03:26:27;97445.47;;;19.03;100.00
72423;BME280;71399;54.146;38.734;2023-08-01T03:28:55;97450.38;;;19.01;100.00
72423;BME280;71399;54.146;38.734;2023-08-01T03:31:22;97444.72;;;19.03;100.00
72423;BME280;71399;54.146;38.734;2023-08-01T03:33:48;97428.56;;;18.99;100.00
72423;BME280;71399;54.146;38.734;2023-08-01T03:36:14;97449.34;;;19.06;100.00
72423;BME280;71399;54.146;38.734;2023-08-01T03:38:41;97447.59;;;19.10;100.00
72423;BME280;71399;54.146;38.734;2023-08-01T03:41:07;97440.78;;;19.13;100.00
72423;BME280;71399;54.146;38.734;2023-08-01T03:43:33;97434.25;;;19.10;100.00
72423;BME280;71399;54.146;38.734;2023-08-01T03:45:59;97449.78;;;19.20;100.00
72423;BME280;71399;54.146;38.734;2023-08-01T03:48:25;97437.91;;;19.18;100.00
72423;BME280;71399;54.146;38.734;2023-08-01T03:50:52;97453.81;;;19.27;100.00
72423;BME280;71399;54.146;38.734;2023-08-01T03:53:18;97456.91;;;19.29;100.00
72423;BME280;71399;54.146;38.734;2023-08-01T03:55:44;97453.56;;;19.32;100.00
72423;BME280;71399;54.146;38.734;2023-08-01T03:58:11;97463.59;;;19.35;100.00
72423;BME280;71399;54.146;38.734;2023-08-01T04:00:37;97459.78;;;19.36;100.00
72423;BME280;71399;54.146;38.734;2023-08-01T04:03:03;97465.22;;;19.39;100.00
72423;BME280;71399;54.146;38.734;2023-08-01T04:05:29;97457.56;;;19.38;100.00
72423;BME280;71399;54.146;38.734;2023-08-01T04:07:56;97469.56;;;19.44;100.00
72423;BME280;71399;54.146;38.734;2023-08-01T04:10:23;97470.81;;;19.47;100.00
72423;BME280;71399;54.146;38.734;2023-08-01T04:12:49;97471.69;;;19.51;100.00
72423;BME280;71399;54.146;38.734;2023-08-01T04:15:15;97474.34;;;19.51;100.00
72423;BME280;71399;54.146;38.734;2023-08-01T04:17:42;97469.09;;;19.54;100.00
72423;BME280;71399;54.146;38.734;2023-08-01T04:20:08;97472.78;;;19.62;100.00
72423;BME280;71399;54.146;38.734;2023-08-01T04:22:34;97471.66;;;19.63;100.00
72423;BME280;71399;54.146;38.734;2023-08-01T04:25:01;97482.78;;;19.77;100.00
72423;BME280;71399;54.146;38.734;2023-08-01T04:27:29;97485.31;;;19.86;100.00
72423;BME280;71399;54.146;38.734;2023-08-01T04:29:56;97482.50;;;19.95;100.00
72423;BME280;71399;54.146;38.734;2023-08-01T04:32:22;97478.13;;;20.03;100.00
72423;BME280;71399;54.146;38.734;2023-08-01T04:34:48;97468.31;;;20.07;100.00
72423;BME280;71399;54.146;38.734;2023-08-01T04:37:14;97463.72;;;20.07;100.00
72423;BME280;71399;54.146;38.734;2023-08-01T04:39:40;97456.69;;;20.15;100.00
72423;BME280;71399;54.146;38.734;2023-08-01T04:42:07;97458.88;;;20.25;100.00
72423;BME280;71399;54.146;38.734;2023-08-01T04:44:33;97439.00;;;20.26;100.00
72423;BME280;71399;54.146;38.734;2023-08-01T04:46:59;97448.88;;;20.38;100.00
72423;BME280;71399;54.146;38.734;2023-08-01T04:49:25;97431.25;;;20.37;100.00
72423;BME280;71399;54.146;38.734;2023-08-01T04:51:51;97421.06;;;20.43;100.00
72423;BME280;71399;54.146;38.734;2023-08-01T04:54:18;97435.34;;;20.47;100.00
72423;BME280;71399;54.146;38.734;2023-08-01T04:56:44;97433.41;;;20.47;100.00
72423;BME280;71399;54.146;38.734;2023-08-01T04:59:10;97420.03;;;20.47;100.00
72423;BME280;71399;54.146;38.734;2023-08-01T05:01:36;97413.59;;;20.48;100.00
72423;BME280;71399;54.146;38.734;2023-08-01T05:04:02;97407.97;;;20.53;100.00
72423;BME280;71399;54.146;38.734;2023-08-01T05:06:28;97424.44;;;20.55;100.00
72423;BME280;71399;54.146;38.734;2023-08-01T05:08:55;97433.00;;;20.61;100.00
72423;BME280;71399;54.146;38.734;2023-08-01T05:11:21;97423.06;;;20.62;100.00
72423;BME280;71399;54.146;38.734;2023-08-01T05:13:47;97414.59;;;20.60;100.00
72423;BME280;71399;54.146;38.734;2023-08-01T05:16:13;97426.53;;;20.62;100.00
72423;BME280;71399;54.146;38.734;2023-08-01T05:18:39;97418.06;;;20.60;100.00
72423;BME280;71399;54.146;38.734;2023-08-01T05:21:05;97426.63;;;20.66;100.00
72423;BME280;71399;54.146;38.734;2023-08-01T05:23:32;97418.59;;;20.66;100.00
72423;BME280;71399;54.146;38.734;2023-08-01T05:25:58;97431.38;;;20.72;100.00
72423;BME280;71399;54.146;38.734;2023-08-01T05:28:24;97426.09;;;20.76;100.00
72423;BME280;71399;54.146;38.734;2023-08-01T05:30:50;97422.06;;;20.82;100.00
72423;BME280;71399;54.146;38.734;2023-08-01T05:33:16;97394.44;;;20.78;100.00
72423;BME280;71399;54.146;38.734;2023-08-01T05:35:42;97394.06;;;20.80;100.00
72423;BME280;71399;54.146;38.734;2023-08-01T05:38:08;97383.63;;;20.75;100.00
72423;BME280;71399;54.146;38.734;2023-08-01T05:40:35;97396.84;;;20.83;100.00
72423;BME280;71399;54.146;38.734;2023-08-01T05:43:01;97394.31;;;20.90;100.00
72423;BME280;71399;54.146;38.734;2023-08-01T05:45:27;97400.06;;;21.08;100.00
72423;BME280;71399;54.146;38.734;2023-08-01T05:47:53;97401.00;;;21.16;100.00
72423;BME280;71399;54.146;38.734;2023-08-01T05:50:20;97385.34;;;21.18;100.00
72423;BME280;71399;54.146;38.734;2023-08-01T05:52:46;97387.13;;;21.30;100.00
72423;BME280;71399;54.146;38.734;2023-08-01T05:55:12;97380.13;;;21.45;100.00
72423;BME280;71399;54.146;38.734;2023-08-01T05:57:38;97380.75;;;21.54;100.00
72423;BME280;71399;54.146;38.734;2023-08-01T06:00:05;97375.44;;;21.58;100.00
72423;BME280;71399;54.146;38.734;2023-08-01T06:02:38;97365.50;;;21.58;100.00
72423;BME280;71399;54.146;38.734;2023-08-01T06:05:05;97376.50;;;21.73;100.00
72423;BME280;71399;54.146;38.734;2023-08-01T06:07:31;97374.38;;;21.82;100.00
72423;BME280;71399;54.146;38.734;2023-08-01T06:09:57;97366.88;;;21.91;100.00
72423;BME280;71399;54.146;38.734;2023-08-01T06:12:23;97355.19;;;22.03;100.00
72423;BME280;71399;54.146;38.734;2023-08-01T06:14:50;97355.22;;;22.26;100.00
72423;BME280;71399;54.146;38.734;2023-08-01T06:17:16;97368.19;;;22.44;100.00
72423;BME280;71399;54.146;38.734;2023-08-01T06:19:42;97370.75;;;22.63;100.00
72423;BME280;71399;54.146;38.734;2023-08-01T06:22:08;97366.38;;;22.78;100.00
72423;BME280;71399;54.146;38.734;2023-08-01T06:24:35;97365.81;;;22.92;100.00
72423;BME280;71399;54.146;38.734;2023-08-01T06:27:01;97352.53;;;23.03;100.00
72423;BME280;71399;54.146;38.734;2023-08-01T06:29:27;97372.78;;;23.23;100.00
72423;BME280;71399;54.146;38.734;2023-08-01T06:31:53;97384.13;;;23.40;100.00
72423;BME280;71399;54.146;38.734;2023-08-01T06:34:19;97405.78;;;23.51;100.00
72423;BME280;71399;54.146;38.734;2023-08-01T06:36:45;97434.28;;;23.59;100.00
72423;BME280;71399;54.146;38.734;2023-08-01T06:39:12;97428.28;;;23.69;100.00
72423;BME280;71399;54.146;38.734;2023-08-01T06:41:38;97423.47;;;23.85;100.00
72423;BME280;71399;54.146;38.734;2023-08-01T06:44:04;97429.78;;;24.00;100.00
72423;BME280;71399;54.146;38.734;2023-08-01T06:46:30;97452.97;;;24.12;100.00
72423;BME280;71399;54.146;38.734;2023-08-01T06:48:57;97494.59;;;24.22;100.00
72423;BME280;71399;54.146;38.734;2023-08-01T06:51:24;97499.06;;;24.41;100.00
72423;BME280;71399;54.146;38.734;2023-08-01T06:53:50;97544.16;;;24.51;100.00
72423;BME280;71399;54.146;38.734;2023-08-01T06:56:16;97505.53;;;24.74;100.00
72423;BME280;71399;54.146;38.734;2023-08-01T06:58:42;97531.72;;;24.77;100.00
72423;BME280;71399;54.146;38.734;2023-08-01T07:01:08;97576.81;;;24.84;100.00
72423;BME280;71399;54.146;38.734;2023-08-01T07:03:34;97548.41;;;24.90;100.00
72423;BME280;71399;54.146;38.734;2023-08-01T07:06:01;97651.78;;;24.74;100.00
72423;BME280;71399;54.146;38.734;2023-08-01T07:08:27;97600.44;;;24.60;100.00
72423;BME280;71399;54.146;38.734;2023-08-01T07:10:53;97498.50;;;24.62;100.00
72423;BME280;71399;54.146;38.734;2023-08-01T07:13:19;97605.69;;;24.49;100.00
72423;BME280;71399;54.146;38.734;2023-08-01T07:15:45;97532.16;;;24.45;100.00
72423;BME280;71399;54.146;38.734;2023-08-01T07:18:12;97546.44;;;24.49;100.00
72423;BME280;71399;54.146;38.734;2023-08-01T07:20:39;97551.88;;;24.53;100.00
72423;BME280;71399;54.146;38.734;2023-08-01T07:23:05;97527.22;;;24.51;100.00
72423;BME280;71399;54.146;38.734;2023-08-01T07:25:31;97487.22;;;24.49;100.00
72423;BME280;71399;54.146;38.734;2023-08-01T07:27:58;97493.53;;;24.64;100.00
72423;BME280;71399;54.146;38.734;2023-08-01T07:30:24;97541.25;;;24.67;100.00
72423;BME280;71399;54.146;38.734;2023-08-01T07:32:50;97546.78;;;24.82;100.00
72423;BME280;71399;54.146;38.734;2023-08-01T07:35:16;97599.94;;;24.85;100.00
72423;BME280;71399;54.146;38.734;2023-08-01T07:37:42;97579.88;;;24.82;100.00
72423;BME280;71399;54.146;38.734;2023-08-01T07:40:09;97510.75;;;25.01;100.00
72423;BME280;71399;54.146;38.734;2023-08-01T07:42:35;97542.19;;;25.30;100.00
72423;BME280;71399;54.146;38.734;2023-08-01T07:45:02;97606.28;;;25.48;100.00
72423;BME280;71399;54.146;38.734;2023-08-01T07:47:28;97675.97;;;25.42;100.00
72423;BME280;71399;54.146;38.734;2023-08-01T07:49:54;97556.59;;;25.52;100.00
72423;BME280;71399;54.146;38.734;2023-08-01T07:52:21;97632.91;;;25.53;100.00
72423;BME280;71399;54.146;38.734;2023-08-01T07:54:47;97637.25;;;25.68;100.00
72423;BME280;71399;54.146;38.734;2023-08-01T07:57:13;97555.97;;;25.81;100.00
72423;BME280;71399;54.146;38.734;2023-08-01T07:59:39;97595.94;;;25.57;100.00
72423;BME280;71399;54.146;38.734;2023-08-01T08:02:05;97622.69;;;25.28;100.00
72423;BME280;71399;54.146;38.734;2023-08-01T08:04:31;97567.00;;;25.06;100.00
72423;BME280;71399;54.146;38.734;2023-08-01T08:06:58;97555.78;;;25.00;100.00
72423;BME280;71399;54.146;38.734;2023-08-01T08:09:26;97514.47;;;24.85;100.00
72423;BME280;71399;54.146;38.734;2023-08-01T08:11:53;97508.97;;;24.71;100.00
72423;BME280;71399;54.146;38.734;2023-08-01T08:14:19;97476.19;;;24.62;100.00
72423;BME280;71399;54.146;38.734;2023-08-01T08:16:47;97511.34;;;24.76;100.00
72423;BME280;71399;54.146;38.734;2023-08-01T08:19:13;97537.25;;;24.91;100.00
72423;BME280;71399;54.146;38.734;2023-08-01T08:21:40;97499.22;;;25.04;100.00
72423;BME280;71399;54.146;38.734;2023-08-01T08:24:06;97528.47;;;25.02;100.00
72423;BME280;71399;54.146;38.734;2023-08-01T08:26:33;97494.66;;;25.08;100.00
72423;BME280;71399;54.146;38.734;2023-08-01T08:29:03;97540.09;;;25.09;100.00
72423;BME280;71399;54.146;38.734;2023-08-01T08:31:32;97522.72;;;25.03;100.00
72423;BME280;71399;54.146;38.734;2023-08-01T08:33:59;97545.72;;;24.93;100.00
72423;BME280;71399;54.146;38.734;2023-08-01T08:36:25;97533.00;;;24.90;100.00
72423;BME280;71399;54.146;38.734;2023-08-01T08:38:51;97534.53;;;24.88;100.00
72423;BME280;71399;54.146;38.734;2023-08-01T08:41:22;97522.31;;;25.01;100.00
72423;BME280;71399;54.146;38.734;2023-08-01T08:43:50;97525.56;;;25.21;100.00
72423;BME280;71399;54.146;38.734;2023-08-01T08:46:28;97549.88;;;25.28;100.00
72423;BME280;71399;54.146;38.734;2023-08-01T08:48:57;97629.69;;;25.37;100.00
72423;BME280;71399;54.146;38.734;2023-08-01T08:51:26;97587.75;;;25.43;100.00
72423;BME280;71399;54.146;38.734;2023-08-01T08:53:54;97658.47;;;25.70;100.00
72423;BME280;71399;54.146;38.734;2023-08-01T08:56:22;97673.38;;;26.01;100.00
72423;BME280;71399;54.146;38.734;2023-08-01T08:58:49;97734.28;;;26.02;100.00
72423;BME280;71399;54.146;38.734;2023-08-01T09:01:17;97733.44;;;25.91;100.00
72423;BME280;71399;54.146;38.734;2023-08-01T09:03:43;97714.09;;;25.89;100.00
72423;BME280;71399;54.146;38.734;2023-08-01T09:06:18;97713.72;;;25.87;100.00
72423;BME280;71399;54.146;38.734;2023-08-01T09:08:50;97666.69;;;25.88;100.00
72423;BME280;71399;54.146;38.734;2023-08-01T09:11:18;97712.50;;;25.81;100.00
72423;BME280;71399;54.146;38.734;2023-08-01T09:13:44;97688.53;;;25.72;100.00
72423;BME280;71399;54.146;38.734;2023-08-01T09:16:11;97728.63;;;25.74;100.00
72423;BME280;71399;54.146;38.734;2023-08-01T09:18:51;97776.91;;;25.82;100.00
72423;BME280;71399;54.146;38.734;2023-08-01T09:21:21;97774.56;;;25.81;100.00
72423;BME280;71399;54.146;38.734;2023-08-01T09:23:48;97713.66;;;25.80;100.00
72423;BME280;71399;54.146;38.734;2023-08-01T09:26:15;97717.09;;;25.77;100.00
72423;BME280;71399;54.146;38.734;2023-08-01T09:28:41;97765.50;;;25.96;100.00
72423;BME280;71399;54.146;38.734;2023-08-01T09:31:07;97802.22;;;26.08;100.00
72423;BME280;71399;54.146;38.734;2023-08-01T09:33:41;97737.88;;;26.21;100.00
72423;BME280;71399;54.146;38.734;2023-08-01T09:36:08;97689.75;;;26.34;100.00
72423;BME280;71399;54.146;38.734;2023-08-01T09:38:36;97756.84;;;26.28;100.00
72423;BME280;71399;54.146;38.734;2023-08-01T09:41:05;97769.16;;;26.25;100.00
72423;BME280;71399;54.146;38.734;2023-08-01T09:43:35;97723.69;;;26.31;100.00
72423;BME280;71399;54.146;38.734;2023-08-01T09:46:02;97779.28;;;26.39;100.00
72423;BME280;71399;54.146;38.734;2023-08-01T09:48:29;97713.78;;;26.60;100.00
72423;BME280;71399;54.146;38.734;2023-08-01T09:51:12;97810.69;;;26.62;100.00
72423;BME280;71399;54.146;38.734;2023-08-01T09:53:48;97803.78;;;26.65;100.00
72423;BME280;71399;54.146;38.734;2023-08-01T09:56:18;97851.28;;;26.69;100.00
72423;BME280;71399;54.146;38.734;2023-08-01T09:58:47;97815.78;;;26.71;100.00
72423;BME280;71399;54.146;38.734;2023-08-01T10:01:15;97751.75;;;26.86;100.00
72423;BME280;71399;54.146;38.734;2023-08-01T10:03:46;97872.63;;;26.82;100.00
72423;BME280;71399;54.146;38.734;2023-08-01T10:06:29;97952.66;;;26.97;100.00
72423;BME280;71399;54.146;38.734;2023-08-01T10:08:58;97946.38;;;26.82;100.00
72423;BME280;71399;54.146;38.734;2023-08-01T10:11:26;97898.81;;;26.74;100.00
72423;BME280;71399;54.146;38.734;2023-08-01T10:13:55;97951.63;;;26.64;100.00
72423;BME280;71399;54.146;38.734;2023-08-01T10:16:22;97804.97;;;26.67;100.00
72423;BME280;71399;54.146;38.734;2023-08-01T10:18:50;97845.53;;;26.74;100.00
72423;BME280;71399;54.146;38.734;2023-08-01T10:21:17;97858.22;;;26.63;100.00
72423;BME280;71399;54.146;38.734;2023-08-01T10:23:45;97865.84;;;26.54;100.00
72423;BME280;71399;54.146;38.734;2023-08-01T10:26:13;97830.31;;;26.52;100.00
72423;BME280;71399;54.146;38.734;2023-08-01T10:28:41;97865.19;;;26.68;100.00
72423;BME280;71399;54.146;38.734;2023-08-01T10:31:11;97913.94;;;26.86;100.00
72423;BME280;71399;54.146;38.734;2023-08-01T10:33:39;97902.38;;;26.89;100.00
72423;BME280;71399;54.146;38.734;2023-08-01T10:36:22;97948.22;;;26.74;100.00
72423;BME280;71399;54.146;38.734;2023-08-01T10:38:51;97873.59;;;26.59;100.00
72423;BME280;71399;54.146;38.734;2023-08-01T10:41:25;97804.09;;;26.56;100.00
72423;BME280;71399;54.146;38.734;2023-08-01T10:44:06;97770.91;;;26.59;100.00
72423;BME280;71399;54.146;38.734;2023-08-01T10:47:05;97791.00;;;26.61;100.00
72423;BME280;71399;54.146;38.734;2023-08-01T10:49:43;97812.66;;;26.65;100.00
72423;BME280;71399;54.146;38.734;2023-08-01T10:52:20;97788.38;;;26.69;100.00
72423;BME280;71399;54.146;38.734;2023-08-01T10:55:00;97837.41;;;26.71;100.00
72423;BME280;71399;54.146;38.734;2023-08-01T10:57:31;97852.88;;;26.77;100.00
72423;BME280;71399;54.146;38.734;2023-08-01T10:59:58;97869.53;;;26.83;100.00
72423;BME280;71399;54.146;38.734;2023-08-01T11:02:31;97891.19;;;26.87;100.00
72423;BME280;71399;54.146;38.734;2023-08-01T11:05:04;97857.56;;;26.88;100.00
72423;BME280;71399;54.146;38.734;2023-08-01T11:07:31;97871.44;;;26.83;100.00
72423;BME280;71399;54.146;38.734;2023-08-01T11:10:10;97811.91;;;26.68;100.00
72423;BME280;71399;54.146;38.734;2023-08-01T11:12:38;97743.88;;;26.55;100.00
72423;BME280;71399;54.146;38.734;2023-08-01T11:15:09;97776.28;;;26.48;100.00
72423;BME280;71399;54.146;38.734;2023-08-01T11:17:40;97732.97;;;26.37;100.00
72423;BME280;71399;54.146;38.734;2023-08-01T11:20:11;97767.72;;;26.42;100.00
72423;BME280;71399;54.146;38.734;2023-08-01T11:22:52;97766.78;;;26.79;100.00
72423;BME280;71399;54.146;38.734;2023-08-01T11:25:19;97810.50;;;26.96;100.00
72423;BME280;71399;54.146;38.734;2023-08-01T11:27:45;97870.38;;;26.98;100.00
72423;BME280;71399;54.146;38.734;2023-08-01T11:30:12;97859.91;;;26.93;100.00
72423;BME280;71399;54.146;38.734;2023-08-01T11:32:38;97750.63;;;26.87;100.00
72423;BME280;71399;54.146;38.734;2023-08-01T11:35:05;97754.16;;;27.05;100.00
72423;BME280;71399;54.146;38.734;2023-08-01T11:37:32;97812.56;;;27.24;100.00
72423;BME280;71399;54.146;38.734;2023-08-01T11:39:59;97980.25;;;27.28;100.00
72423;BME280;71399;54.146;38.734;2023-08-01T11:42:30;97896.53;;;27.46;100.00
72423;BME280;71399;54.146;38.734;2023-08-01T11:45:10;98037.75;;;27.69;100.00
72423;BME280;71399;54.146;38.734;2023-08-01T11:47:37;98033.53;;;27.76;100.00
72423;BME280;71399;54.146;38.734;2023-08-01T11:50:04;97995.53;;;27.58;100.00
72423;BME280;71399;54.146;38.734;2023-08-01T11:52:31;97900.44;;;27.56;100.00
72423;BME280;71399;54.146;38.734;2023-08-01T11:54:57;97946.03;;;27.50;100.00
72423;BME280;71399;54.146;38.734;2023-08-01T11:57:24;97995.41;;;27.32;100.00
72423;BME280;71399;54.146;38.734;2023-08-01T11:59:54;97900.56;;;27.04;100.00
72423;BME280;71399;54.146;38.734;2023-08-01T12:02:28;97893.16;;;26.97;100.00
72423;BME280;71399;54.146;38.734;2023-08-01T12:04:56;97807.00;;;26.88;100.00
72423;BME280;71399;54.146;38.734;2023-08-01T12:07:25;97799.56;;;26.67;100.00
72423;BME280;71399;54.146;38.734;2023-08-01T12:09:59;97737.63;;;26.40;100.00
72423;BME280;71399;54.146;38.734;2023-08-01T12:12:27;97675.75;;;26.14;100.00
72423;BME280;71399;54.146;38.734;2023-08-01T12:14:54;97667.94;;;25.98;100.00
72423;BME280;71399;54.146;38.734;2023-08-01T12:17:20;97642.72;;;25.79;100.00
72423;BME280;71399;54.146;38.734;2023-08-01T12:19:47;97664.94;;;25.58;100.00
72423;BME280;71399;54.146;38.734;2023-08-01T12:22:13;97618.59;;;25.45;100.00
72423;BME280;71399;54.146;38.734;2023-08-01T12:24:40;97519.09;;;25.33;100.00
72423;BME280;71399;54.146;38.734;2023-08-01T12:27:08;97490.56;;;25.28;100.00
72423;BME280;71399;54.146;38.734;2023-08-01T12:29:35;97505.97;;;25.28;100.00
72423;BME280;71399;54.146;38.734;2023-08-01T12:32:04;97527.94;;;25.30;100.00
72423;BME280;71399;54.146;38.734;2023-08-01T12:34:33;97524.91;;;25.39;100.00
72423;BME280;71399;54.146;38.734;2023-08-01T12:36:59;97507.63;;;25.43;100.00
72423;BME280;71399;54.146;38.734;2023-08-01T12:39:25;97528.47;;;25.50;100.00
72423;BME280;71399;54.146;38.734;2023-08-01T12:41:52;97475.72;;;25.56;100.00